sensor_id;sensor_type;location;lat;lon;timestamp;temperature;humidity
16140;DHT22;8175;49.326;12.690;2022-11-13T00:02:11;1.40;99.90
16140;DHT22;8175;49.326;12.690;2022-11-13T00:04:37;1.40;99.90
16140;DHT22;8175;49.326;12.690;2022-11-13T00:07:02;1.40;99.90
16140;DHT22;8175;49.326;12.690;2022-11-13T00:09:28;1.30;99.90
16140;DHT22;8175;49.326;12.690;2022-11-13T00:11:53;1.30;99.90
16140;DHT22;8175;49.326;12.690;2022-11-13T00:14:19;1.30;99.90
16140;DHT22;8175;49.326;12.690;2022-11-13T00:16:45;1.30;99.90
16140;DHT22;8175;49.326;12.690;2022-11-13T00:19:10;1.20;99.90
16140;DHT22;8175;49.326;12.690;2022-11-13T00:21:36;1.20;99.90
16140;DHT22;8175;49.326;12.690;2022-11-13T00:24:02;1.30;99.90
16140;DHT22;8175;49.326;12.690;2022-11-13T00:26:29;1.30;99.90
16140;DHT22;8175;49.326;12.690;2022-11-13T00:28:57;1.30;99.90
16140;DHT22;8175;49.326;12.690;2022-11-13T00:31:23;1.30;99.90
16140;DHT22;8175;49.326;12.690;2022-11-13T00:33:49;1.30;99.90
16140;DHT22;8175;49.326;12.690;2022-11-13T00:36:19;1.50;99.90
16140;DHT22;8175;49.326;12.690;2022-11-13T00:38:45;1.70;99.90
16140;DHT22;8175;49.326;12.690;2022-11-13T00:41:11;1.80;99.90
16140;DHT22;8175;49.326;12.690;2022-11-13T00:43:37;1.80;99.90
16140;DHT22;8175;49.326;12.690;2022-11-13T00:46:02;1.70;99.90
16140;DHT22;8175;49.326;12.690;2022-11-13T00:48:28;1.70;99.90
16140;DHT22;8175;49.326;12.690;2022-11-13T00:50:54;1.60;99.90
16140;DHT22;8175;49.326;12.690;2022-11-13T00:53:20;1.60;99.90
16140;DHT22;8175;49.326;12.690;2022-11-13T00:55:46;1.70;99.90
16140;DHT22;8175;49.326;12.690;2022-11-13T00:58:12;1.70;99.90
16140;DHT22;8175;49.326;12.690;2022-11-13T01:00:39;1.70;99.90
16140;DHT22;8175;49.326;12.690;2022-11-13T01:03:05;1.70;99.90
16140;DHT22;8175;49.326;12.690;2022-11-13T01:05:37;1.60;99.90
16140;DHT22;8175;49.326;12.690;2022-11-13T01:08:04;1.60;99.90
16140;DHT22;8175;49.326;12.690;2022-11-13T01:10:30;1.50;99.90
16140;DHT22;8175;49.326;12.690;2022-11-13T01:12:55;1.40;99.90
16140;DHT22;8175;49.326;12.690;2022-11-13T01:15:21;1.30;99.90
16140;DHT22;8175;49.326;12.690;2022-11-13T01:17:46;1.30;99.90
16140;DHT22;8175;49.326;12.690;2022-11-13T01:20:12;1.20;99.90
16140;DHT22;8175;49.326;12.690;2022-11-13T01:22:38;1.00;99.90
16140;DHT22;8175;49.326;12.690;2022-11-13T01:25:04;1.00;99.90
16140;DHT22;8175;49.326;12.690;2022-11-13T01:27:29;1.00;99.90
16140;DHT22;8175;49.326;12.690;2022-11-13T01:29:55;1.10;99.90
16140;DHT22;8175;49.326;12.690;2022-11-13T01:32:21;1.20;99.90
16140;DHT22;8175;49.326;12.690;2022-11-13T01:34:46;1.30;99.90
16140;DHT22;8175;49.326;12.690;2022-11-13T01:37:12;1.30;99.90
16140;DHT22;8175;49.326;12.690;2022-11-13T01:39:38;1.20;99.90
16140;DHT22;8175;49.326;12.690;2022-11-13T01:42:03;1.20;99.90
16140;DHT22;8175;49.326;12.690;2022-11-13T01:44:50;1.30;99.90
16140;DHT22;8175;49.326;12.690;2022-11-13T01:47:17;1.30;99.90
16140;DHT22;8175;49.326;12.690;2022-11-13T01:49:45;1.30;99.90
16140;DHT22;8175;49.326;12.690;2022-11-13T01:52:18;1.30;99.90
16140;DHT22;8175;49.326;12.690;2022-11-13T01:54:47;1.20;99.90
16140;DHT22;8175;49.326;12.690;2022-11-13T01:57:16;1.10;99.90
16140;DHT22;8175;49.326;12.690;2022-11-13T01:59:46;1.10;99.90
16140;DHT22;8175;49.326;12.690;2022-11-13T02:02:13;1.20;99.90
16140;DHT22;8175;49.326;12.690;2022-11-13T02:04:39;1.30;99.90
16140;DHT22;8175;49.326;12.690;2022-11-13T02:07:10;1.30;99.90
16140;DHT22;8175;49.326;12.690;2022-11-13T02:09:42;1.20;99.90
16140;DHT22;8175;49.326;12.690;2022-11-13T02:12:14;1.20;99.90
16140;DHT22;8175;49.326;12.690;2022-11-13T02:14:44;1.10;99.90
16140;DHT22;8175;49.326;12.690;2022-11-13T02:17:17;1.00;99.90
16140;DHT22;8175;49.326;12.690;2022-11-13T02:19:49;0.90;99.90
16140;DHT22;8175;49.326;12.690;2022-11-13T02:25:02;1.00;99.90
16140;DHT22;8175;49.326;12.690;2022-11-13T02:27:39;1.20;99.90
16140;DHT22;8175;49.326;12.690;2022-11-13T02:30:22;1.30;99.90
16140;DHT22;8175;49.326;12.690;2022-11-13T02:32:49;1.10;99.90
16140;DHT22;8175;49.326;12.690;2022-11-13T02:35:36;0.90;99.90
16140;DHT22;8175;49.326;12.690;2022-11-13T02:38:04;0.80;99.90
16140;DHT22;8175;49.326;12.690;2022-11-13T02:40:30;0.70;99.90
16140;DHT22;8175;49.326;12.690;2022-11-13T02:42:56;0.80;99.90
16140;DHT22;8175;49.326;12.690;2022-11-13T02:45:22;0.90;99.90
16140;DHT22;8175;49.326;12.690;2022-11-13T02:47:48;1.00;99.90
16140;DHT22;8175;49.326;12.690;2022-11-13T02:50:14;1.00;99.90
16140;DHT22;8175;49.326;12.690;2022-11-13T02:52:40;1.00;99.90
16140;DHT22;8175;49.326;12.690;2022-11-13T02:55:07;1.00;99.90
16140;DHT22;8175;49.326;12.690;2022-11-13T02:57:32;0.90;99.90
16140;DHT22;8175;49.326;12.690;2022-11-13T02:59:58;0.90;99.90
16140;DHT22;8175;49.326;12.690;2022-11-13T03:02:23;1.20;99.90
16140;DHT22;8175;49.326;12.690;2022-11-13T03:04:49;1.30;99.90
16140;DHT22;8175;49.326;12.690;2022-11-13T03:07:15;1.40;99.90
16140;DHT22;8175;49.326;12.690;2022-11-13T03:09:40;1.40;99.90
16140;DHT22;8175;49.326;12.690;2022-11-13T03:12:07;1.40;99.90
16140;DHT22;8175;49.326;12.690;2022-11-13T03:14:34;1.40;99.90
16140;DHT22;8175;49.326;12.690;2022-11-13T03:16:59;1.20;99.90
16140;DHT22;8175;49.326;12.690;2022-11-13T03:19:25;1.20;99.90
16140;DHT22;8175;49.326;12.690;2022-11-13T03:21:51;1.20;99.90
16140;DHT22;8175;49.326;12.690;2022-11-13T03:24:17;1.20;99.90
16140;DHT22;8175;49.326;12.690;2022-11-13T03:26:42;1.10;99.90
16140;DHT22;8175;49.326;12.690;2022-11-13T03:29:08;1.10;99.90
16140;DHT22;8175;49.326;12.690;2022-11-13T03:31:34;1.20;99.90
16140;DHT22;8175;49.326;12.690;2022-11-13T03:33:59;1.20;99.90
16140;DHT22;8175;49.326;12.690;2022-11-13T03:36:25;1.10;99.90
16140;DHT22;8175;49.326;12.690;2022-11-13T03:38:51;1.10;99.90
16140;DHT22;8175;49.326;12.690;2022-11-13T03:41:16;1.10;99.90
16140;DHT22;8175;49.326;12.690;2022-11-13T03:43:42;1.30;99.90
16140;DHT22;8175;49.326;12.690;2022-11-13T03:46:08;1.40;99.90
16140;DHT22;8175;49.326;12.690;2022-11-13T03:48:34;1.40;99.90
16140;DHT22;8175;49.326;12.690;2022-11-13T03:51:00;1.30;99.90
16140;DHT22;8175;49.326;12.690;2022-11-13T03:53:26;1.00;99.90
16140;DHT22;8175;49.326;12.690;2022-11-13T03:55:52;0.80;99.90
16140;DHT22;8175;49.326;12.690;2022-11-13T03:58:18;0.60;99.90
16140;DHT22;8175;49.326;12.690;2022-11-13T04:00:45;0.50;99.90
16140;DHT22;8175;49.326;12.690;2022-11-13T04:03:11;0.60;99.90
16140;DHT22;8175;49.326;12.690;2022-11-13T04:05:37;0.80;99.90
16140;DHT22;8175;49.326;12.690;2022-11-13T04:08:03;0.80;99.90
16140;DHT22;8175;49.326;12.690;2022-11-13T04:10:29;0.70;99.90
16140;DHT22;8175;49.326;12.690;2022-11-13T04:12:55;0.60;99.90
16140;DHT22;8175;49.326;12.690;2022-11-13T04:15:21;0.60;99.90
16140;DHT22;8175;49.326;12.690;2022-11-13T04:17:47;0.60;99.90
16140;DHT22;8175;49.326;12.690;2022-11-13T04:20:13;0.50;99.90
16140;DHT22;8175;49.326;12.690;2022-11-13T04:22:39;0.60;99.90
16140;DHT22;8175;49.326;12.690;2022-11-13T04:25:05;0.60;99.90
16140;DHT22;8175;49.326;12.690;2022-11-13T04:27:31;0.60;99.90
16140;DHT22;8175;49.326;12.690;2022-11-13T04:29:57;0.60;99.90
16140;DHT22;8175;49.326;12.690;2022-11-13T04:32:23;0.50;99.90
16140;DHT22;8175;49.326;12.690;2022-11-13T04:34:48;0.50;99.90
16140;DHT22;8175;49.326;12.690;2022-11-13T04:37:14;0.40;99.90
16140;DHT22;8175;49.326;12.690;2022-11-13T04:39:39;0.40;99.90
16140;DHT22;8175;49.326;12.690;2022-11-13T04:42:05;0.50;99.90
16140;DHT22;8175;49.326;12.690;2022-11-13T04:44:51;0.50;99.90
16140;DHT22;8175;49.326;12.690;2022-11-13T04:47:17;0.50;99.90
16140;DHT22;8175;49.326;12.690;2022-11-13T04:49:42;0.50;99.90
16140;DHT22;8175;49.326;12.690;2022-11-13T04:52:08;0.50;99.90
16140;DHT22;8175;49.326;12.690;2022-11-13T04:54:34;0.50;99.90
16140;DHT22;8175;49.326;12.690;2022-11-13T04:57:00;0.70;99.90
16140;DHT22;8175;49.326;12.690;2022-11-13T04:59:25;0.80;99.90
16140;DHT22;8175;49.326;12.690;2022-11-13T05:01:51;0.80;99.90
16140;DHT22;8175;49.326;12.690;2022-11-13T05:04:17;0.70;99.90
16140;DHT22;8175;49.326;12.690;2022-11-13T05:06:42;0.60;99.90
16140;DHT22;8175;49.326;12.690;2022-11-13T05:09:09;0.60;99.90
16140;DHT22;8175;49.326;12.690;2022-11-13T05:11:35;0.60;99.90
16140;DHT22;8175;49.326;12.690;2022-11-13T05:14:01;0.60;99.90
16140;DHT22;8175;49.326;12.690;2022-11-13T05:16:26;0.60;99.90
16140;DHT22;8175;49.326;12.690;2022-11-13T05:18:52;0.60;99.90
16140;DHT22;8175;49.326;12.690;2022-11-13T05:21:17;0.70;99.90
16140;DHT22;8175;49.326;12.690;2022-11-13T05:23:44;0.80;99.90
16140;DHT22;8175;49.326;12.690;2022-11-13T05:26:11;0.90;99.90
16140;DHT22;8175;49.326;12.690;2022-11-13T05:28:37;0.90;99.90
16140;DHT22;8175;49.326;12.690;2022-11-13T05:31:14;1.00;99.90
16140;DHT22;8175;49.326;12.690;2022-11-13T05:33:41;1.00;99.90
16140;DHT22;8175;49.326;12.690;2022-11-13T05:36:09;1.10;99.90
16140;DHT22;8175;49.326;12.690;2022-11-13T05:38:36;1.20;99.90
16140;DHT22;8175;49.326;12.690;2022-11-13T05:41:06;1.30;99.90
16140;DHT22;8175;49.326;12.690;2022-11-13T05:43:33;1.50;99.90
16140;DHT22;8175;49.326;12.690;2022-11-13T05:46:05;1.30;99.90
16140;DHT22;8175;49.326;12.690;2022-11-13T05:48:31;1.10;99.90
16140;DHT22;8175;49.326;12.690;2022-11-13T05:51:05;1.10;99.90
16140;DHT22;8175;49.326;12.690;2022-11-13T05:53:31;1.30;99.90
16140;DHT22;8175;49.326;12.690;2022-11-13T05:56:02;1.30;99.90
16140;DHT22;8175;49.326;12.690;2022-11-13T05:58:28;1.10;99.90
16140;DHT22;8175;49.326;12.690;2022-11-13T06:01:04;1.00;99.90
16140;DHT22;8175;49.326;12.690;2022-11-13T06:03:30;1.10;99.90
16140;DHT22;8175;49.326;12.690;2022-11-13T06:05:57;1.10;99.90
16140;DHT22;8175;49.326;12.690;2022-11-13T06:08:23;1.20;99.90
16140;DHT22;8175;49.326;12.690;2022-11-13T06:10:49;1.40;99.90
16140;DHT22;8175;49.326;12.690;2022-11-13T06:13:14;1.50;99.90
16140;DHT22;8175;49.326;12.690;2022-11-13T06:15:40;1.40;99.90
16140;DHT22;8175;49.326;12.690;2022-11-13T06:18:06;1.30;99.90
16140;DHT22;8175;49.326;12.690;2022-11-13T06:20:34;1.00;99.90
16140;DHT22;8175;49.326;12.690;2022-11-13T06:23:00;0.80;99.90
16140;DHT22;8175;49.326;12.690;2022-11-13T06:25:26;0.80;99.90
16140;DHT22;8175;49.326;12.690;2022-11-13T06:27:52;0.70;99.90
16140;DHT22;8175;49.326;12.690;2022-11-13T06:30:18;0.80;99.90
16140;DHT22;8175;49.326;12.690;2022-11-13T06:32:44;1.00;99.90
16140;DHT22;8175;49.326;12.690;2022-11-13T06:35:09;1.10;99.90
16140;DHT22;8175;49.326;12.690;2022-11-13T06:37:35;1.40;99.90
16140;DHT22;8175;49.326;12.690;2022-11-13T06:40:00;1.50;99.90
16140;DHT22;8175;49.326;12.690;2022-11-13T06:42:26;1.50;99.90
16140;DHT22;8175;49.326;12.690;2022-11-13T06:44:52;1.40;99.90
16140;DHT22;8175;49.326;12.690;2022-11-13T06:47:17;1.30;99.90
16140;DHT22;8175;49.326;12.690;2022-11-13T06:49:43;1.20;99.90
16140;DHT22;8175;49.326;12.690;2022-11-13T06:52:08;1.10;99.90
16140;DHT22;8175;49.326;12.690;2022-11-13T06:54:34;1.20;99.90
16140;DHT22;8175;49.326;12.690;2022-11-13T06:57:00;1.20;99.90
16140;DHT22;8175;49.326;12.690;2022-11-13T06:59:25;1.20;99.90
16140;DHT22;8175;49.326;12.690;2022-11-13T07:01:51;1.10;99.90
16140;DHT22;8175;49.326;12.690;2022-11-13T07:04:18;1.10;99.90
16140;DHT22;8175;49.326;12.690;2022-11-13T07:06:43;1.10;99.90
16140;DHT22;8175;49.326;12.690;2022-11-13T07:09:09;1.20;99.90
16140;DHT22;8175;49.326;12.690;2022-11-13T07:11:34;1.40;99.90
16140;DHT22;8175;49.326;12.690;2022-11-13T07:14:00;1.70;99.90
16140;DHT22;8175;49.326;12.690;2022-11-13T07:16:26;1.90;99.90
16140;DHT22;8175;49.326;12.690;2022-11-13T07:18:52;2.00;99.90
16140;DHT22;8175;49.326;12.690;2022-11-13T07:21:18;2.10;99.90
16140;DHT22;8175;49.326;12.690;2022-11-13T07:23:46;2.20;99.90
16140;DHT22;8175;49.326;12.690;2022-11-13T07:26:12;2.00;99.90
16140;DHT22;8175;49.326;12.690;2022-11-13T07:28:38;1.80;99.90
16140;DHT22;8175;49.326;12.690;2022-11-13T07:31:05;1.70;99.90
16140;DHT22;8175;49.326;12.690;2022-11-13T07:33:30;1.80;99.90
16140;DHT22;8175;49.326;12.690;2022-11-13T07:35:57;1.90;99.90
16140;DHT22;8175;49.326;12.690;2022-11-13T07:38:23;2.10;99.90
16140;DHT22;8175;49.326;12.690;2022-11-13T07:40:49;2.30;99.90
16140;DHT22;8175;49.326;12.690;2022-11-13T07:43:14;2.70;99.90
16140;DHT22;8175;49.326;12.690;2022-11-13T07:45:40;3.10;99.90
16140;DHT22;8175;49.326;12.690;2022-11-13T07:48:06;3.30;99.90
16140;DHT22;8175;49.326;12.690;2022-11-13T07:50:33;3.40;99.90
16140;DHT22;8175;49.326;12.690;2022-11-13T07:53:02;3.50;99.90
16140;DHT22;8175;49.326;12.690;2022-11-13T07:55:28;3.50;99.90
16140;DHT22;8175;49.326;12.690;2022-11-13T07:57:55;3.60;99.90
16140;DHT22;8175;49.326;12.690;2022-11-13T08:00:21;3.60;99.90
16140;DHT22;8175;49.326;12.690;2022-11-13T08:02:47;3.60;99.90
16140;DHT22;8175;49.326;12.690;2022-11-13T08:05:13;3.60;99.90
16140;DHT22;8175;49.326;12.690;2022-11-13T08:07:39;3.70;99.90
16140;DHT22;8175;49.326;12.690;2022-11-13T08:10:05;3.90;99.90
16140;DHT22;8175;49.326;12.690;2022-11-13T08:12:31;3.90;99.90
16140;DHT22;8175;49.326;12.690;2022-11-13T08:14:57;3.90;99.90
16140;DHT22;8175;49.326;12.690;2022-11-13T08:17:22;3.90;99.90
16140;DHT22;8175;49.326;12.690;2022-11-13T08:19:48;3.90;99.90
16140;DHT22;8175;49.326;12.690;2022-11-13T08:22:13;3.90;99.90
16140;DHT22;8175;49.326;12.690;2022-11-13T08:24:39;4.00;99.90
16140;DHT22;8175;49.326;12.690;2022-11-13T08:27:05;4.10;99.90
16140;DHT22;8175;49.326;12.690;2022-11-13T08:29:31;4.30;99.90
16140;DHT22;8175;49.326;12.690;2022-11-13T08:31:58;4.40;99.90
16140;DHT22;8175;49.326;12.690;2022-11-13T08:34:23;4.50;99.90
16140;DHT22;8175;49.326;12.690;2022-11-13T08:36:49;4.60;99.90
16140;DHT22;8175;49.326;12.690;2022-11-13T08:39:14;4.70;99.90
16140;DHT22;8175;49.326;12.690;2022-11-13T08:41:40;5.00;99.90
16140;DHT22;8175;49.326;12.690;2022-11-13T08:44:06;5.10;99.90
16140;DHT22;8175;49.326;12.690;2022-11-13T08:46:31;5.40;99.90
16140;DHT22;8175;49.326;12.690;2022-11-13T08:48:57;5.70;99.90
16140;DHT22;8175;49.326;12.690;2022-11-13T08:51:23;6.00;99.90
16140;DHT22;8175;49.326;12.690;2022-11-13T08:53:48;6.20;99.90
16140;DHT22;8175;49.326;12.690;2022-11-13T08:56:14;6.40;99.90
16140;DHT22;8175;49.326;12.690;2022-11-13T08:58:39;6.70;99.90
16140;DHT22;8175;49.326;12.690;2022-11-13T09:01:05;7.10;99.90
16140;DHT22;8175;49.326;12.690;2022-11-13T09:03:31;7.40;99.90
16140;DHT22;8175;49.326;12.690;2022-11-13T09:05:57;7.70;99.90
16140;DHT22;8175;49.326;12.690;2022-11-13T09:08:22;8.50;99.90
16140;DHT22;8175;49.326;12.690;2022-11-13T09:10:48;10.20;99.90
16140;DHT22;8175;49.326;12.690;2022-11-13T09:13:14;12.10;99.90
16140;DHT22;8175;49.326;12.690;2022-11-13T09:15:39;13.80;99.90
16140;DHT22;8175;49.326;12.690;2022-11-13T09:18:06;14.90;99.90
16140;DHT22;8175;49.326;12.690;2022-11-13T09:20:32;14.70;99.90
16140;DHT22;8175;49.326;12.690;2022-11-13T09:23:03;16.20;99.00
16140;DHT22;8175;49.326;12.690;2022-11-13T09:25:30;16.90;95.10
16140;DHT22;8175;49.326;12.690;2022-11-13T09:27:58;17.20;94.00
16140;DHT22;8175;49.326;12.690;2022-11-13T09:30:25;18.00;91.80
16140;DHT22;8175;49.326;12.690;2022-11-13T09:32:55;19.00;82.50
16140;DHT22;8175;49.326;12.690;2022-11-13T09:35:23;18.80;81.10
16140;DHT22;8175;49.326;12.690;2022-11-13T09:38:03;18.40;80.40
16140;DHT22;8175;49.326;12.690;2022-11-13T09:40:42;17.40;81.30
16140;DHT22;8175;49.326;12.690;2022-11-13T09:43:34;17.10;84.00
16140;DHT22;8175;49.326;12.690;2022-11-13T09:46:05;17.50;85.30
16140;DHT22;8175;49.326;12.690;2022-11-13T09:51:14;18.80;77.40
16140;DHT22;8175;49.326;12.690;2022-11-13T09:53:40;19.10;77.30
16140;DHT22;8175;49.326;12.690;2022-11-13T09:56:15;18.50;76.90
16140;DHT22;8175;49.326;12.690;2022-11-13T10:04:55;15.70;84.00
16140;DHT22;8175;49.326;12.690;2022-11-13T10:07:26;15.50;85.40
16140;DHT22;8175;49.326;12.690;2022-11-13T10:13:06;14.80;87.10
16140;DHT22;8175;49.326;12.690;2022-11-13T10:15:36;14.80;86.20
16140;DHT22;8175;49.326;12.690;2022-11-13T10:18:12;14.30;88.80
16140;DHT22;8175;49.326;12.690;2022-11-13T10:20:55;14.10;89.50
16140;DHT22;8175;49.326;12.690;2022-11-13T10:23:28;14.10;90.20
16140;DHT22;8175;49.326;12.690;2022-11-13T10:25:59;14.50;90.10
16140;DHT22;8175;49.326;12.690;2022-11-13T10:28:26;14.50;89.40
16140;DHT22;8175;49.326;12.690;2022-11-13T10:30:52;15.20;90.00
16140;DHT22;8175;49.326;12.690;2022-11-13T10:33:20;16.20;85.40
16140;DHT22;8175;49.326;12.690;2022-11-13T10:36:01;15.80;86.00
16140;DHT22;8175;49.326;12.690;2022-11-13T10:38:34;15.40;86.10
16140;DHT22;8175;49.326;12.690;2022-11-13T10:44:27;14.50;89.80
16140;DHT22;8175;49.326;12.690;2022-11-13T10:47:17;14.80;87.80
16140;DHT22;8175;49.326;12.690;2022-11-13T10:49:43;16.20;87.20
16140;DHT22;8175;49.326;12.690;2022-11-13T10:52:17;17.20;82.20
16140;DHT22;8175;49.326;12.690;2022-11-13T10:54:44;17.70;80.80
16140;DHT22;8175;49.326;12.690;2022-11-13T10:57:29;17.90;79.00
16140;DHT22;8175;49.326;12.690;2022-11-13T10:59:57;16.90;81.30
16140;DHT22;8175;49.326;12.690;2022-11-13T11:02:25;16.80;80.90
16140;DHT22;8175;49.326;12.690;2022-11-13T11:05:04;17.10;86.60
16140;DHT22;8175;49.326;12.690;2022-11-13T11:07:38;17.10;81.70
16140;DHT22;8175;49.326;12.690;2022-11-13T11:10:21;15.70;85.00
16140;DHT22;8175;49.326;12.690;2022-11-13T11:12:52;16.40;85.00
16140;DHT22;8175;49.326;12.690;2022-11-13T11:18:02;18.40;81.70
16140;DHT22;8175;49.326;12.690;2022-11-13T11:20:42;19.00;76.30
16140;DHT22;8175;49.326;12.690;2022-11-13T11:23:14;18.50;77.20
16140;DHT22;8175;49.326;12.690;2022-11-13T11:25:53;18.70;77.80
16140;DHT22;8175;49.326;12.690;2022-11-13T11:28:33;19.70;77.70
16140;DHT22;8175;49.326;12.690;2022-11-13T11:31:22;19.20;71.40
16140;DHT22;8175;49.326;12.690;2022-11-13T11:34:03;19.30;74.90
16140;DHT22;8175;49.326;12.690;2022-11-13T11:42:18;19.30;71.90
16140;DHT22;8175;49.326;12.690;2022-11-13T11:47:15;18.40;72.90
16140;DHT22;8175;49.326;12.690;2022-11-13T11:49:42;18.10;75.40
16140;DHT22;8175;49.326;12.690;2022-11-13T12:00:17;18.10;75.00
16140;DHT22;8175;49.326;12.690;2022-11-13T12:11:32;16.60;78.90
16140;DHT22;8175;49.326;12.690;2022-11-13T12:19:44;17.50;77.90
16140;DHT22;8175;49.326;12.690;2022-11-13T12:25:34;17.60;75.80
16140;DHT22;8175;49.326;12.690;2022-11-13T12:28:16;17.20;77.70
16140;DHT22;8175;49.326;12.690;2022-11-13T12:36:19;18.60;75.20
16140;DHT22;8175;49.326;12.690;2022-11-13T12:41:49;16.70;78.90
16140;DHT22;8175;49.326;12.690;2022-11-13T12:47:10;15.90;80.80
16140;DHT22;8175;49.326;12.690;2022-11-13T12:49:37;16.50;82.20
16140;DHT22;8175;49.326;12.690;2022-11-13T12:52:18;16.50;79.70
16140;DHT22;8175;49.326;12.690;2022-11-13T12:54:45;16.50;79.90
16140;DHT22;8175;49.326;12.690;2022-11-13T12:59:51;16.20;80.00
16140;DHT22;8175;49.326;12.690;2022-11-13T13:02:44;15.60;82.10
16140;DHT22;8175;49.326;12.690;2022-11-13T13:07:51;14.30;84.40
16140;DHT22;8175;49.326;12.690;2022-11-13T13:10:44;15.60;84.70
16140;DHT22;8175;49.326;12.690;2022-11-13T13:16:03;15.70;84.30
16140;DHT22;8175;49.326;12.690;2022-11-13T13:18:36;15.70;86.50
16140;DHT22;8175;49.326;12.690;2022-11-13T13:21:08;16.30;81.30
16140;DHT22;8175;49.326;12.690;2022-11-13T13:23:42;16.60;80.40
16140;DHT22;8175;49.326;12.690;2022-11-13T13:26:16;16.50;81.30
16140;DHT22;8175;49.326;12.690;2022-11-13T13:28:56;16.20;80.00
16140;DHT22;8175;49.326;12.690;2022-11-13T13:31:51;16.10;81.00
16140;DHT22;8175;49.326;12.690;2022-11-13T13:34:45;15.80;81.50
16140;DHT22;8175;49.326;12.690;2022-11-13T13:40:12;15.80;80.40
16140;DHT22;8175;49.326;12.690;2022-11-13T13:45:55;14.50;83.10
16140;DHT22;8175;49.326;12.690;2022-11-13T13:48:25;14.10;85.60
16140;DHT22;8175;49.326;12.690;2022-11-13T13:50:53;14.00;86.50
16140;DHT22;8175;49.326;12.690;2022-11-13T13:53:22;14.10;84.70
16140;DHT22;8175;49.326;12.690;2022-11-13T13:55:53;13.70;85.70
16140;DHT22;8175;49.326;12.690;2022-11-13T13:58:26;13.70;87.20
16140;DHT22;8175;49.326;12.690;2022-11-13T14:01:01;13.80;86.10
16140;DHT22;8175;49.326;12.690;2022-11-13T14:03:27;13.90;86.20
16140;DHT22;8175;49.326;12.690;2022-11-13T14:05:55;13.70;86.60
16140;DHT22;8175;49.326;12.690;2022-11-13T14:08:23;13.10;87.50
16140;DHT22;8175;49.326;12.690;2022-11-13T14:10:49;12.90;89.20
16140;DHT22;8175;49.326;12.690;2022-11-13T14:13:27;12.90;90.40
16140;DHT22;8175;49.326;12.690;2022-11-13T14:16:05;13.00;90.30
16140;DHT22;8175;49.326;12.690;2022-11-13T14:18:32;13.20;89.90
16140;DHT22;8175;49.326;12.690;2022-11-13T14:21:01;13.00;90.30
16140;DHT22;8175;49.326;12.690;2022-11-13T14:23:36;13.00;90.50
16140;DHT22;8175;49.326;12.690;2022-11-13T14:26:04;12.80;91.30
16140;DHT22;8175;49.326;12.690;2022-11-13T14:28:43;12.60;91.60
16140;DHT22;8175;49.326;12.690;2022-11-13T14:31:11;12.40;92.20
16140;DHT22;8175;49.326;12.690;2022-11-13T14:33:49;11.50;94.50
16140;DHT22;8175;49.326;12.690;2022-11-13T14:36:23;10.80;98.60
16140;DHT22;8175;49.326;12.690;2022-11-13T14:38:49;9.90;99.90
16140;DHT22;8175;49.326;12.690;2022-11-13T14:41:45;9.10;99.90
16140;DHT22;8175;49.326;12.690;2022-11-13T14:44:27;8.40;99.90
16140;DHT22;8175;49.326;12.690;2022-11-13T14:47:04;8.00;99.90
16140;DHT22;8175;49.326;12.690;2022-11-13T14:49:36;7.60;99.90
16140;DHT22;8175;49.326;12.690;2022-11-13T14:52:03;7.30;99.90
16140;DHT22;8175;49.326;12.690;2022-11-13T14:54:36;7.10;99.90
16140;DHT22;8175;49.326;12.690;2022-11-13T14:57:07;6.80;99.90
16140;DHT22;8175;49.326;12.690;2022-11-13T14:59:33;6.70;99.90
16140;DHT22;8175;49.326;12.690;2022-11-13T15:01:59;6.60;99.90
16140;DHT22;8175;49.326;12.690;2022-11-13T15:04:25;6.60;99.90
16140;DHT22;8175;49.326;12.690;2022-11-13T15:06:59;6.50;99.90
16140;DHT22;8175;49.326;12.690;2022-11-13T15:09:25;6.30;99.90
16140;DHT22;8175;49.326;12.690;2022-11-13T15:11:51;6.20;99.90
16140;DHT22;8175;49.326;12.690;2022-11-13T15:14:18;6.00;99.90
16140;DHT22;8175;49.326;12.690;2022-11-13T15:16:45;5.80;99.90
16140;DHT22;8175;49.326;12.690;2022-11-13T15:19:15;5.70;99.90
16140;DHT22;8175;49.326;12.690;2022-11-13T15:21:42;5.40;99.90
16140;DHT22;8175;49.326;12.690;2022-11-13T15:24:10;5.10;99.90
16140;DHT22;8175;49.326;12.690;2022-11-13T15:26:36;4.80;99.90
16140;DHT22;8175;49.326;12.690;2022-11-13T15:29:02;4.70;99.90
16140;DHT22;8175;49.326;12.690;2022-11-13T15:31:32;4.60;99.90
16140;DHT22;8175;49.326;12.690;2022-11-13T15:33:59;4.70;99.90
16140;DHT22;8175;49.326;12.690;2022-11-13T15:36:24;4.80;99.90
16140;DHT22;8175;49.326;12.690;2022-11-13T15:38:50;4.80;99.90
16140;DHT22;8175;49.326;12.690;2022-11-13T15:41:21;4.80;99.90
16140;DHT22;8175;49.326;12.690;2022-11-13T15:43:49;4.80;99.90
16140;DHT22;8175;49.326;12.690;2022-11-13T15:46:17;4.70;99.90
16140;DHT22;8175;49.326;12.690;2022-11-13T15:48:43;4.50;99.90
16140;DHT22;8175;49.326;12.690;2022-11-13T15:51:23;4.20;99.90
16140;DHT22;8175;49.326;12.690;2022-11-13T15:54:01;4.10;99.90
16140;DHT22;8175;49.326;12.690;2022-11-13T15:56:30;3.80;99.90
16140;DHT22;8175;49.326;12.690;2022-11-13T15:58:55;3.50;99.90
16140;DHT22;8175;49.326;12.690;2022-11-13T16:01:21;3.30;99.90
16140;DHT22;8175;49.326;12.690;2022-11-13T16:03:47;3.20;99.90
16140;DHT22;8175;49.326;12.690;2022-11-13T16:06:19;3.20;99.90
16140;DHT22;8175;49.326;12.690;2022-11-13T16:08:45;3.50;99.90
16140;DHT22;8175;49.326;12.690;2022-11-13T16:11:15;3.60;99.90
16140;DHT22;8175;49.326;12.690;2022-11-13T16:13:41;3.50;99.90
16140;DHT22;8175;49.326;12.690;2022-11-13T16:16:13;3.20;99.90
16140;DHT22;8175;49.326;12.690;2022-11-13T16:18:41;3.30;99.90
16140;DHT22;8175;49.326;12.690;2022-11-13T16:21:10;3.20;99.90
16140;DHT22;8175;49.326;12.690;2022-11-13T16:23:36;3.20;99.90
16140;DHT22;8175;49.326;12.690;2022-11-13T16:26:02;3.00;99.90
16140;DHT22;8175;49.326;12.690;2022-11-13T16:28:31;2.80;99.90
16140;DHT22;8175;49.326;12.690;2022-11-13T16:30:56;2.60;99.90
16140;DHT22;8175;49.326;12.690;2022-11-13T16:33:22;2.60;99.90
16140;DHT22;8175;49.326;12.690;2022-11-13T16:35:48;2.70;99.90
16140;DHT22;8175;49.326;12.690;2022-11-13T16:38:14;2.70;99.90
16140;DHT22;8175;49.326;12.690;2022-11-13T16:40:40;2.60;99.90
16140;DHT22;8175;49.326;12.690;2022-11-13T16:43:08;2.50;99.90
16140;DHT22;8175;49.326;12.690;2022-11-13T16:45:36;2.40;99.90
16140;DHT22;8175;49.326;12.690;2022-11-13T16:48:12;2.40;99.90
16140;DHT22;8175;49.326;12.690;2022-11-13T16:50:38;2.30;99.90
16140;DHT22;8175;49.326;12.690;2022-11-13T16:53:05;2.20;99.90
16140;DHT22;8175;49.326;12.690;2022-11-13T16:55:31;2.30;99.90
16140;DHT22;8175;49.326;12.690;2022-11-13T16:57:57;2.30;99.90
16140;DHT22;8175;49.326;12.690;2022-11-13T17:00:23;2.30;99.90
16140;DHT22;8175;49.326;12.690;2022-11-13T17:02:52;2.20;99.90
16140;DHT22;8175;49.326;12.690;2022-11-13T17:05:18;2.20;99.90
16140;DHT22;8175;49.326;12.690;2022-11-13T17:07:44;2.10;99.90
16140;DHT22;8175;49.326;12.690;2022-11-13T17:10:12;2.20;99.90
16140;DHT22;8175;49.326;12.690;2022-11-13T17:12:38;2.30;99.90